This is the latest recevied weather packets stored in our database for station/object MB7UCW-13. If no packets are shown the sender has not sent any weather packets the latest 10 day(s).
| Time | Temp. | Humidity | Pressure | Rain* | Wind** | Luminosity | Snow |
|---|---|---|---|---|---|---|---|
| 1777671903 | 12.22° C | 94% | 1019 hPa | 0 mm | - | 0 W/m² | - |
| 1777671003 | 12.78° C | 94% | 1018.8 hPa | 0 mm | - | 0 W/m² | - |
| 1777661103 | 14.44° C | 91% | 1018.9 hPa | 1.52 mm | - | 11 W/m² | - |
| 1777660203 | 14.44° C | 90% | 1018.9 hPa | 2.03 mm | - | 12 W/m² | - |
| 1777647624 | 19.44° C | 57% | 1018.8 hPa | 0 mm | - | 255 W/m² | - |
| 1777644903 | 20° C | 55% | 1018.8 hPa | 0 mm | - | 318 W/m² | - |
| 1777642203 | 20.56° C | 52% | 1018.8 hPa | 0 mm | - | 462 W/m² | - |
| 1777637724 | 21.11° C | 52% | 1019 hPa | 0 mm | - | 548 W/m² | - |
| 1777633224 | 20° C | 53% | 1019.4 hPa | 0 mm | - | 415 W/m² | - |
| 1777630503 | 19.44° C | 51% | 1019.6 hPa | 0 mm | - | 680 W/m² | - |
| 1777627803 | 18.33° C | 49% | 1019.6 hPa | 0 mm | - | 585 W/m² | - |
| 1777620603 | 15° C | 55% | 1019.6 hPa | 0 mm | - | 348 W/m² | - |
| 1777619703 | 14.44° C | 56% | 1019.4 hPa | 0 mm | - | 309 W/m² | - |
| 1777617024 | 12.22° C | 63% | 1019.6 hPa | 0 mm | - | 197 W/m² | - |
| 1777611603 | 7.78° C | 74% | 1019.6 hPa | 0 mm | - | 14 W/m² | - |
| 1777610703 | 7.78° C | 73% | 1019.5 hPa | 0 mm | - | 9 W/m² | - |
| 1777608903 | 8.33° C | 70% | 1019.6 hPa | 0 mm | - | 0 W/m² | - |
| 1777608003 | 7.78° C | 70% | 1019.7 hPa | 0 mm | - | 0 W/m² | - |
| 1777599903 | 9.44° C | 65% | 1020.1 hPa | 0 mm | - | 0 W/m² | - |
| 1777597203 | 11.11° C | 56% | 1020.3 hPa | 0 mm | - | 0 W/m² | - |
| 1777590903 | 13.89° C | 47% | 1020.7 hPa | 0 mm | - | 0 W/m² | - |
| 1777588203 | 14.44° C | 47% | 1020.8 hPa | 0 mm | - | 0 W/m² | - |
| 1777585503 | 15° C | 46% | 1020.7 hPa | 0 mm | - | 0 W/m² | - |
| 1777584603 | 15° C | 47% | 1020.7 hPa | 0 mm | - | 0 W/m² | - |
| 1777578303 | 18.33° C | 36% | 1019.9 hPa | 0 mm | - | 0 W/m² | - |
* Rain latest hour (hover to see other rain measurements)
** Current wind speed in m/s (hover to see current wind gust speed)